Time;durP1;ratioP1;P1;durP2;ratioP2;P2;SDS_P1;SDS_P2;PMS_P1;PMS_P2;Temp;Humidity;BMP_temperature;BMP_pressure;BME280_temperature;BME280_humidity;BME280_pressure;Samples;Min_cycle;Max_cycle;Signal;HPM_P1;HPM_P2
2024/03/12 00:00:16;;;;;;;4.38;3.00;;;8.50;99.90;;;;;;5055366;28;20640;-87
2024/03/12 00:02:46;;;;;;;5.65;4.18;;;8.50;99.90;;;;;;5054700;28;20512;-87
2024/03/12 00:05:20;;;;;;;6.30;4.63;;;8.40;99.90;;;;;;5053663;28;20466;-87
2024/03/12 00:07:47;;;;;;;6.80;3.80;;;8.30;99.90;;;;;;5053502;28;20053;-87
2024/03/12 00:10:19;;;;;;;7.30;4.20;;;8.30;99.90;;;;;;5052779;28;20021;-88
2024/03/12 00:12:49;;;;;;;6.55;4.18;;;8.20;99.90;;;;;;5052895;28;20017;-87
2024/03/12 00:15:20;;;;;;;7.05;4.07;;;8.10;99.90;;;;;;5052638;28;20040;-88
2024/03/12 00:17:46;;;;;;;5.82;3.85;;;8.10;99.90;;;;;;5053984;28;20060;-87
2024/03/12 00:20:17;;;;;;;4.72;3.72;;;7.90;99.90;;;;;;5052192;28;20035;-87
2024/03/12 00:22:47;;;;;;;6.68;4.10;;;7.90;99.90;;;;;;5053279;28;20029;-87
2024/03/12 00:25:20;;;;;;;6.72;4.25;;;7.80;99.90;;;;;;5053664;28;20036;-87
2024/03/12 00:27:46;;;;;;;6.63;4.38;;;7.80;99.90;;;;;;5052340;28;20371;-88
2024/03/12 00:30:13;;;;;;;6.28;4.05;;;7.70;99.90;;;;;;5051934;28;20031;-88
2024/03/12 00:32:40;;;;;;;7.55;4.13;;;7.70;99.90;;;;;;5052659;28;20029;-88
2024/03/12 00:35:10;;;;;;;5.40;3.88;;;7.60;99.90;;;;;;5052373;28;20470;-87
2024/03/12 00:37:38;;;;;;;6.25;3.78;;;7.40;99.90;;;;;;5052647;28;20486;-87
2024/03/12 00:40:11;;;;;;;6.40;3.38;;;7.30;99.90;;;;;;5052081;28;20029;-88
2024/03/12 00:42:40;;;;;;;8.90;3.55;;;7.30;99.90;;;;;;5051969;28;20044;-87
2024/03/12 00:45:13;;;;;;;4.30;2.88;;;7.20;99.90;;;;;;5051782;28;20044;-87
2024/03/12 00:47:40;;;;;;;5.15;3.58;;;7.20;99.90;;;;;;5051758;28;20029;-87
2024/03/12 00:50:07;;;;;;;5.28;3.67;;;7.10;99.90;;;;;;5066473;28;20028;-87
2024/03/12 00:52:33;;;;;;;6.97;3.72;;;7.10;99.90;;;;;;5068168;28;20025;-87
2024/03/12 00:55:01;;;;;;;5.75;4.20;;;7.00;99.90;;;;;;5060618;28;20021;-87
2024/03/12 00:57:27;;;;;;;5.53;3.72;;;7.00;99.90;;;;;;5057685;28;20027;-87
2024/03/12 00:59:52;;;;;;;5.38;3.63;;;6.90;99.90;;;;;;5051720;28;20093;-87
2024/03/12 01:02:19;;;;;;;6.07;3.38;;;6.90;99.90;;;;;;5051022;28;20400;-84
2024/03/12 01:04:45;;;;;;;6.18;4.40;;;6.90;99.90;;;;;;5050473;28;20016;-84
2024/03/12 01:07:12;;;;;;;9.55;4.72;;;6.80;99.90;;;;;;5049865;28;20119;-83
2024/03/12 01:09:40;;;;;;;6.50;4.50;;;6.80;99.90;;;;;;5050105;28;20486;-84
2024/03/12 01:12:09;;;;;;;7.15;4.05;;;6.80;99.90;;;;;;5050120;28;20033;-84
2024/03/12 01:14:36;;;;;;;7.03;5.18;;;6.70;99.90;;;;;;5050445;28;20028;-84
2024/03/12 01:17:08;;;;;;;5.88;3.85;;;6.60;99.90;;;;;;5050412;28;20106;-84
2024/03/12 01:19:37;;;;;;;7.43;4.03;;;6.50;99.90;;;;;;5050077;28;20051;-83
2024/03/12 01:22:08;;;;;;;6.57;4.65;;;6.40;99.90;;;;;;5049927;28;20099;-84
2024/03/12 01:24:34;;;;;;;5.78;4.00;;;6.40;99.90;;;;;;5030497;28;20112;-83
2024/03/12 01:27:00;;;;;;;4.65;3.97;;;6.30;99.90;;;;;;5058774;28;20120;-84
2024/03/12 01:29:26;;;;;;;7.05;4.20;;;6.30;99.90;;;;;;5049915;28;20320;-84
2024/03/12 01:31:52;;;;;;;6.80;4.38;;;6.30;99.90;;;;;;5049907;28;20390;-84
2024/03/12 01:34:22;;;;;;;5.40;4.03;;;6.10;99.90;;;;;;5050055;28;20401;-84
2024/03/12 01:36:48;;;;;;;6.70;4.20;;;6.10;99.90;;;;;;5049991;28;20033;-84
2024/03/12 01:39:16;;;;;;;6.70;3.97;;;6.00;99.90;;;;;;5049936;28;20025;-84
2024/03/12 01:41:44;;;;;;;6.03;4.43;;;6.00;99.90;;;;;;5049426;28;20178;-84
2024/03/12 01:44:10;;;;;;;7.57;4.45;;;6.00;99.90;;;;;;5049751;28;20029;-84
2024/03/12 01:46:37;;;;;;;10.95;4.18;;;5.90;99.90;;;;;;5049680;28;20481;-84
2024/03/12 01:49:08;;;;;;;7.45;3.90;;;5.90;99.90;;;;;;5049956;28;20424;-84
2024/03/12 01:51:35;;;;;;;8.35;4.22;;;5.80;99.90;;;;;;5049044;28;20053;-84
2024/03/12 01:54:03;;;;;;;6.82;4.38;;;5.80;99.90;;;;;;5049476;28;20021;-84
2024/03/12 01:56:29;;;;;;;7.57;5.25;;;5.80;99.90;;;;;;5049602;28;20029;-84
2024/03/12 01:58:57;;;;;;;6.65;4.40;;;5.80;99.90;;;;;;5049414;28;20029;-84
2024/03/12 02:01:23;;;;;;;7.53;4.57;;;5.90;99.90;;;;;;5049029;28;20079;-84
2024/03/12 02:03:51;;;;;;;7.78;5.03;;;6.00;99.90;;;;;;5049654;28;20116;-84
2024/03/12 02:06:17;;;;;;;8.00;4.85;;;6.00;99.90;;;;;;5049602;28;20217;-84
2024/03/12 02:08:44;;;;;;;9.38;5.38;;;5.90;99.90;;;;;;5048907;28;20033;-83
2024/03/12 02:11:11;;;;;;;8.45;5.40;;;5.90;99.90;;;;;;5048994;28;20029;-84
2024/03/12 02:13:37;;;;;;;11.05;5.70;;;5.80;99.90;;;;;;5048878;28;20028;-84
2024/03/12 02:16:03;;;;;;;8.13;5.53;;;5.80;99.90;;;;;;5049144;28;20029;-84
2024/03/12 02:18:29;;;;;;;9.75;5.32;;;5.70;99.90;;;;;;5049224;28;20078;-84
2024/03/12 02:20:54;;;;;;;8.10;5.32;;;5.80;99.90;;;;;;5048680;28;20017;-84
2024/03/12 02:23:40;;;;;;;11.05;5.78;;;5.70;99.90;;;;;;5049381;28;20025;-84
2024/03/12 02:26:06;;;;;;;9.65;5.88;;;5.60;99.90;;;;;;5049931;28;20071;-84
2024/03/12 02:28:32;;;;;;;11.45;5.88;;;5.70;99.90;;;;;;5052836;28;20450;-84
2024/03/12 02:30:58;;;;;;;8.98;5.90;;;5.70;99.90;;;;;;5049857;28;20111;-85
2024/03/12 02:33:24;;;;;;;8.50;5.05;;;5.60;99.90;;;;;;5049230;28;20785;-84
2024/03/12 02:35:50;;;;;;;8.93;5.43;;;5.60;99.90;;;;;;5048318;28;20115;-84
2024/03/12 02:38:15;;;;;;;11.88;5.60;;;5.50;99.90;;;;;;5048990;28;20078;-84
2024/03/12 02:40:41;;;;;;;8.95;5.50;;;5.50;99.90;;;;;;5048488;28;20036;-84
2024/03/12 02:43:06;;;;;;;9.40;5.85;;;5.40;99.90;;;;;;5048472;28;20498;-84
2024/03/12 02:45:32;;;;;;;10.05;5.55;;;5.40;99.90;;;;;;5048739;28;20029;-84
2024/03/12 02:47:58;;;;;;;7.45;5.40;;;5.30;99.90;;;;;;5027870;28;20033;-84
2024/03/12 02:50:24;;;;;;;9.27;5.78;;;5.30;99.90;;;;;;5035577;28;20363;-84
2024/03/12 02:52:50;;;;;;;9.63;5.40;;;5.40;99.90;;;;;;5048402;28;20094;-84
2024/03/12 02:55:19;;;;;;;9.63;5.75;;;5.40;99.90;;;;;;5057938;28;20454;-84
2024/03/12 02:57:45;;;;;;;10.38;5.22;;;5.50;99.90;;;;;;5053550;28;20103;-84
2024/03/12 03:03:34;;;;;;;10.65;6.80;;;5.50;99.90;;;;;;5066613;28;20104;-84
2024/03/12 03:06:00;;;;;;;10.68;6.03;;;5.60;99.90;;;;;;5068684;28;20037;-84
2024/03/12 03:08:27;;;;;;;7.88;5.45;;;5.60;99.90;;;;;;5051990;28;20025;-84
2024/03/12 03:10:54;;;;;;;8.25;5.60;;;5.60;99.90;;;;;;5047817;28;20401;-84
2024/03/12 03:13:20;;;;;;;8.57;5.75;;;5.60;99.90;;;;;;5048342;28;20029;-84
2024/03/12 03:15:45;;;;;;;8.90;6.32;;;5.60;99.90;;;;;;5048562;28;20056;-84
2024/03/12 03:18:12;;;;;;;9.70;6.55;;;5.70;99.90;;;;;;5067217;28;20033;-84
2024/03/12 03:20:39;;;;;;;9.73;6.50;;;5.60;99.90;;;;;;5068073;28;20467;-84
2024/03/12 03:23:04;;;;;;;8.25;5.72;;;5.70;99.90;;;;;;5069606;28;20029;-84
2024/03/12 03:25:30;;;;;;;14.43;7.55;;;5.70;99.90;;;;;;5070868;28;20024;-84
2024/03/12 03:27:55;;;;;;;13.02;7.40;;;5.70;99.90;;;;;;5060392;28;20474;-84
2024/03/12 03:30:21;;;;;;;13.43;7.97;;;5.80;99.90;;;;;;5051774;28;20029;-84
2024/03/12 03:32:47;;;;;;;13.75;7.05;;;5.90;99.90;;;;;;5055025;28;20052;-84
2024/03/12 03:35:13;;;;;;;16.42;7.50;;;6.00;99.90;;;;;;5072673;28;20434;-84
2024/03/12 03:37:42;;;;;;;12.57;7.10;;;6.10;99.90;;;;;;5073306;28;20029;-84
2024/03/12 03:40:11;;;;;;;12.93;7.55;;;6.10;99.90;;;;;;5071423;28;20088;-84
2024/03/12 03:42:38;;;;;;;10.68;6.13;;;6.10;99.90;;;;;;5071837;28;20074;-84
2024/03/12 03:45:04;;;;;;;16.55;7.88;;;6.20;99.90;;;;;;5071388;28;20020;-84
2024/03/12 03:47:34;;;;;;;10.85;7.15;;;6.20;99.90;;;;;;5071646;28;20036;-84
2024/03/12 03:50:03;;;;;;;10.55;5.90;;;6.20;99.90;;;;;;5071419;28;20020;-84
2024/03/12 03:52:29;;;;;;;11.98;7.40;;;6.10;99.90;;;;;;5071711;28;20028;-84
2024/03/12 03:54:54;;;;;;;9.30;5.97;;;6.10;99.90;;;;;;5071797;28;20458;-84
2024/03/12 03:57:20;;;;;;;9.15;6.38;;;6.00;99.90;;;;;;5072027;28;20081;-84
2024/03/12 03:59:50;;;;;;;14.20;8.27;;;6.10;99.90;;;;;;5071169;28;20025;-84
2024/03/12 04:02:19;;;;;;;15.27;7.77;;;6.10;99.90;;;;;;5071658;28;20032;-84
2024/03/12 04:04:45;;;;;;;14.47;6.90;;;6.10;99.90;;;;;;5071659;28;20024;-84
2024/03/12 04:07:11;;;;;;;12.25;7.07;;;6.10;99.90;;;;;;5071353;28;20278;-83
2024/03/12 04:09:37;;;;;;;11.85;7.72;;;6.00;99.90;;;;;;5071218;28;20025;-84
2024/03/12 04:12:04;;;;;;;16.42;7.13;;;6.00;99.90;;;;;;5072493;28;20146;-84
2024/03/12 04:14:30;;;;;;;11.00;6.75;;;6.00;99.90;;;;;;5073421;28;20100;-84
2024/03/12 04:16:57;;;;;;;12.32;6.20;;;6.00;99.90;;;;;;5071362;28;20025;-84
2024/03/12 04:19:23;;;;;;;11.07;6.50;;;6.00;99.90;;;;;;5071022;28;20500;-84
2024/03/12 04:21:48;;;;;;;8.90;6.50;;;6.00;99.90;;;;;;5072171;28;20028;-84
2024/03/12 04:24:14;;;;;;;15.07;7.32;;;6.00;99.90;;;;;;5071022;28;20111;-84
2024/03/12 04:26:40;;;;;;;12.82;7.43;;;6.00;99.90;;;;;;5070644;28;20036;-84
2024/03/12 04:29:05;;;;;;;11.18;8.18;;;6.00;99.90;;;;;;5070886;28;20132;-84
2024/03/12 04:31:34;;;;;;;10.45;6.82;;;6.10;99.90;;;;;;5070508;28;20050;-84
2024/03/12 04:33:59;;;;;;;10.05;6.28;;;6.10;99.90;;;;;;5070633;28;20021;-84
2024/03/12 04:36:25;;;;;;;9.65;6.10;;;6.10;99.90;;;;;;5069958;28;20078;-85
2024/03/12 04:38:51;;;;;;;10.15;6.05;;;6.10;99.90;;;;;;5070732;28;20025;-84
2024/03/12 04:41:22;;;;;;;9.77;6.53;;;6.10;99.90;;;;;;5070523;28;20025;-84
2024/03/12 04:43:48;;;;;;;11.00;6.90;;;6.10;99.90;;;;;;5070639;28;20024;-84
2024/03/12 04:46:14;;;;;;;12.05;7.13;;;6.20;99.90;;;;;;5072129;28;20468;-84
2024/03/12 04:48:39;;;;;;;9.77;6.35;;;6.30;99.90;;;;;;5070441;28;20124;-84
2024/03/12 04:51:05;;;;;;;14.70;6.57;;;6.50;99.90;;;;;;5070223;28;20108;-84
2024/03/12 04:53:31;;;;;;;11.70;7.05;;;6.60;99.90;;;;;;5071635;28;20305;-84
2024/03/12 04:55:57;;;;;;;13.38;7.50;;;6.60;99.90;;;;;;5070550;28;20391;-84
2024/03/12 04:58:23;;;;;;;11.93;6.72;;;6.70;99.90;;;;;;5071557;28;20024;-84
2024/03/12 05:00:49;;;;;;;10.13;6.35;;;6.80;99.90;;;;;;5063216;28;20489;-84
2024/03/12 05:03:15;;;;;;;8.63;5.57;;;6.80;99.90;;;;;;5050215;28;20047;-84
2024/03/12 05:05:41;;;;;;;10.63;6.07;;;6.80;99.90;;;;;;5063230;28;20032;-84
2024/03/12 05:08:07;;;;;;;9.73;6.13;;;6.90;99.90;;;;;;5070273;28;20025;-84
2024/03/12 05:10:33;;;;;;;12.20;6.55;;;6.80;99.90;;;;;;5069688;28;20028;-84
2024/03/12 05:13:00;;;;;;;10.20;6.90;;;6.80;99.90;;;;;;5065842;28;20024;-84
2024/03/12 05:15:25;;;;;;;9.77;7.30;;;6.80;99.90;;;;;;5070010;28;20025;-84
2024/03/12 05:17:52;;;;;;;11.55;6.78;;;6.80;99.90;;;;;;5070180;28;20044;-84
2024/03/12 05:20:18;;;;;;;16.13;7.75;;;6.80;99.90;;;;;;5069799;28;20027;-84
2024/03/12 05:22:47;;;;;;;10.60;7.28;;;6.80;99.90;;;;;;5069956;28;20035;-84
2024/03/12 05:25:38;;;;;;;9.93;6.75;;;6.80;99.90;;;;;;5071044;28;20028;-84
2024/03/12 05:28:07;;;;;;;12.00;6.38;;;6.80;99.90;;;;;;5069027;28;20103;-85
2024/03/12 05:30:35;;;;;;;11.98;7.28;;;6.80;99.90;;;;;;5069061;28;20024;-85
2024/03/12 05:33:04;;;;;;;11.57;7.03;;;6.80;99.90;;;;;;5062624;28;20025;-85
2024/03/12 05:35:31;;;;;;;10.70;7.05;;;6.80;99.90;;;;;;5049574;28;20501;-85
2024/03/12 05:38:03;;;;;;;12.07;7.32;;;6.90;99.90;;;;;;5049687;28;20049;-85
2024/03/12 05:40:40;;;;;;;13.45;7.18;;;6.90;99.90;;;;;;5049001;28;20508;-85
2024/03/12 05:48:36;;;;;;;12.98;7.45;;;6.90;99.90;;;;;;5057568;28;20468;-89
2024/03/12 05:51:02;;;;;;;13.25;7.38;;;7.00;99.90;;;;;;5070930;28;20111;-90
2024/03/12 05:53:27;;;;;;;10.48;6.90;;;7.00;99.90;;;;;;5071362;28;20059;-90
2024/03/12 05:55:53;;;;;;;11.95;7.05;;;7.00;99.90;;;;;;5070726;28;20025;-90
2024/03/12 05:58:18;;;;;;;12.23;7.10;;;7.00;99.90;;;;;;5072007;28;20119;-88
2024/03/12 06:00:45;;;;;;;10.00;6.20;;;7.10;99.90;;;;;;5070595;28;20114;-87
2024/03/12 06:03:10;;;;;;;9.95;6.63;;;7.10;99.90;;;;;;5072269;28;20481;-88
2024/03/12 06:05:36;;;;;;;12.80;6.57;;;7.10;99.90;;;;;;5071643;28;20047;-88
2024/03/12 06:08:01;;;;;;;12.02;7.18;;;7.10;99.90;;;;;;5069707;28;20027;-82
2024/03/12 06:10:27;;;;;;;12.15;7.10;;;7.10;99.90;;;;;;5068540;28;20028;-82
2024/03/12 06:12:52;;;;;;;15.60;7.82;;;7.20;99.90;;;;;;5069119;28;20063;-83
2024/03/12 06:15:19;;;;;;;9.68;7.43;;;7.20;99.90;;;;;;5070501;28;20103;-82
2024/03/12 06:17:46;;;;;;;9.68;6.68;;;7.30;99.90;;;;;;5070472;28;20023;-82
2024/03/12 06:20:15;;;;;;;8.90;6.18;;;7.40;99.90;;;;;;5065167;28;20079;-82
2024/03/12 06:22:43;;;;;;;9.13;6.28;;;7.40;99.90;;;;;;5056760;28;20029;-83
2024/03/12 06:25:10;;;;;;;11.02;6.65;;;7.50;99.90;;;;;;5067168;28;20082;-83
2024/03/12 06:27:36;;;;;;;9.20;6.38;;;7.60;99.90;;;;;;5068754;28;20401;-82
2024/03/12 06:30:02;;;;;;;9.43;6.18;;;7.60;99.90;;;;;;5068404;28;20029;-83
2024/03/12 06:32:31;;;;;;;10.68;6.78;;;7.70;99.90;;;;;;5068838;28;20032;-83
2024/03/12 06:34:57;;;;;;;12.43;7.80;;;7.80;99.90;;;;;;5053856;28;20032;-83
2024/03/12 06:37:28;;;;;;;11.10;6.55;;;7.80;99.90;;;;;;5048892;28;20051;-83
2024/03/12 06:39:55;;;;;;;10.55;6.55;;;7.90;99.90;;;;;;5050972;28;20052;-83
2024/03/12 06:42:25;;;;;;;10.52;6.18;;;8.00;99.90;;;;;;5060746;28;20481;-83
2024/03/12 06:44:52;;;;;;;10.57;7.05;;;8.10;99.90;;;;;;5058057;28;20120;-83
2024/03/12 06:47:22;;;;;;;10.13;7.20;;;8.20;99.90;;;;;;5052148;28;20098;-82
2024/03/12 06:49:48;;;;;;;11.00;6.80;;;8.20;99.90;;;;;;5051656;28;20016;-83
2024/03/12 06:52:15;;;;;;;10.25;7.22;;;8.30;99.90;;;;;;5068648;28;20533;-83
2024/03/12 06:54:41;;;;;;;12.05;6.20;;;8.30;99.90;;;;;;5068676;28;20028;-83
2024/03/12 06:57:07;;;;;;;14.30;7.28;;;8.40;99.90;;;;;;5068807;28;20064;-82
2024/03/12 06:59:33;;;;;;;11.68;7.28;;;8.50;99.90;;;;;;5070877;28;20109;-82
2024/03/12 07:01:59;;;;;;;10.15;6.63;;;8.60;99.90;;;;;;5069940;28;20025;-83
2024/03/12 07:04:25;;;;;;;12.52;7.85;;;8.70;99.90;;;;;;5054218;28;20036;-83
2024/03/12 07:06:56;;;;;;;10.70;7.60;;;8.80;99.90;;;;;;5052286;28;20029;-83
2024/03/12 07:09:30;;;;;;;13.20;7.30;;;8.80;99.90;;;;;;5052638;28;20060;-83
2024/03/12 07:11:58;;;;;;;9.70;6.20;;;8.90;99.90;;;;;;5057176;28;20158;-83
2024/03/12 07:14:27;;;;;;;11.60;7.10;;;9.00;99.90;;;;;;5067026;28;20090;-83
2024/03/12 07:16:56;;;;;;;12.30;8.15;;;9.10;99.90;;;;;;5070783;28;20040;-83
2024/03/12 07:19:25;;;;;;;11.63;7.53;;;9.10;99.90;;;;;;5071957;28;20051;-83
2024/03/12 07:21:54;;;;;;;12.15;6.78;;;9.10;99.90;;;;;;5072906;28;20047;-83
2024/03/12 07:24:20;;;;;;;11.73;7.03;;;9.20;99.90;;;;;;5072171;28;20036;-83
2024/03/12 07:26:53;;;;;;;9.25;6.65;;;9.20;99.90;;;;;;5071927;28;20388;-83
2024/03/12 07:29:18;;;;;;;8.95;6.25;;;9.20;99.90;;;;;;5071896;28;20028;-83
2024/03/12 07:31:44;;;;;;;14.07;6.97;;;9.20;99.90;;;;;;5071830;28;20021;-83
2024/03/12 07:34:10;;;;;;;11.05;6.68;;;9.30;99.90;;;;;;5080755;28;20493;-82
2024/03/12 07:36:36;;;;;;;9.75;6.90;;;9.40;99.90;;;;;;5072430;28;20120;-84
2024/03/12 07:39:09;;;;;;;11.38;7.60;;;9.30;99.90;;;;;;5065593;28;20044;-82
2024/03/12 07:41:40;;;;;;;11.90;7.30;;;9.40;99.90;;;;;;5058642;28;20020;-83
2024/03/12 07:44:06;;;;;;;9.93;6.43;;;9.40;99.90;;;;;;5066125;28;20075;-85
2024/03/12 07:46:34;;;;;;;9.65;6.38;;;9.40;99.90;;;;;;5058748;28;20510;-86
2024/03/12 07:48:59;;;;;;;10.00;7.45;;;9.40;99.90;;;;;;5070062;28;20448;-80
2024/03/12 07:51:25;;;;;;;11.50;6.93;;;9.40;99.90;;;;;;5059886;28;20031;-81
2024/03/12 07:53:51;;;;;;;11.57;6.82;;;9.40;99.90;;;;;;5071420;28;20478;-81
2024/03/12 07:56:18;;;;;;;9.07;6.85;;;9.40;99.90;;;;;;5068295;28;20083;-81
2024/03/12 07:58:46;;;;;;;9.68;7.10;;;9.50;99.90;;;;;;5061570;28;20040;-82
2024/03/12 08:01:12;;;;;;;10.50;7.03;;;9.40;99.90;;;;;;5069544;28;20036;-83
2024/03/12 08:03:44;;;;;;;9.65;7.15;;;9.40;99.90;;;;;;5057022;28;20021;-81
2024/03/12 08:06:10;;;;;;;9.30;6.80;;;9.50;99.90;;;;;;5056375;28;20029;-83
2024/03/12 08:08:35;;;;;;;10.88;7.18;;;9.50;99.90;;;;;;5067942;28;20024;-82
2024/03/12 08:11:04;;;;;;;9.20;6.68;;;9.60;99.90;;;;;;5075733;28;20032;-83
2024/03/12 08:13:31;;;;;;;9.95;6.90;;;9.70;99.90;;;;;;5076141;28;20024;-90
2024/03/12 08:15:56;;;;;;;14.95;8.10;;;9.80;99.90;;;;;;5077756;28;20028;-91
2024/03/12 08:18:24;;;;;;;10.55;7.70;;;9.90;99.90;;;;;;5073193;28;20029;-85
2024/03/12 08:20:49;;;;;;;10.15;6.93;;;10.00;99.90;;;;;;5059644;28;20029;-87
2024/03/12 08:23:15;;;;;;;9.50;6.97;;;10.20;99.90;;;;;;5054550;28;20029;-89
2024/03/12 08:25:41;;;;;;;7.95;6.25;;;10.30;99.90;;;;;;5056484;28;20033;-82
2024/03/12 08:28:09;;;;;;;11.63;7.70;;;10.40;99.90;;;;;;5053120;28;20028;-81
2024/03/12 08:30:35;;;;;;;10.23;7.38;;;10.50;99.90;;;;;;5052516;28;20056;-90
2024/03/12 08:33:03;;;;;;;9.05;7.30;;;10.60;99.90;;;;;;5055252;28;20028;-90
2024/03/12 08:35:28;;;;;;;10.65;7.90;;;10.70;99.90;;;;;;5054981;28;20353;-88
2024/03/12 08:37:54;;;;;;;12.98;8.20;;;10.70;99.90;;;;;;5054895;28;20033;-90
2024/03/12 08:40:20;;;;;;;9.73;7.90;;;10.70;99.90;;;;;;5055682;28;20468;-89
2024/03/12 08:42:46;;;;;;;14.27;8.77;;;10.60;99.90;;;;;;5058804;28;20056;-91
2024/03/12 08:45:14;;;;;;;9.90;8.07;;;10.60;99.90;;;;;;5062696;28;20366;-82
2024/03/12 08:47:42;;;;;;;12.52;8.30;;;10.60;99.90;;;;;;5070231;28;20028;-81
2024/03/12 08:50:08;;;;;;;11.45;7.82;;;10.60;99.90;;;;;;5051653;28;20611;-82
2024/03/12 08:52:35;;;;;;;13.90;9.18;;;10.60;99.90;;;;;;5052470;28;20035;-82
2024/03/12 08:55:02;;;;;;;16.13;9.88;;;10.50;99.90;;;;;;5052530;28;20021;-82
2024/03/12 08:57:27;;;;;;;13.18;9.55;;;10.40;99.90;;;;;;5057383;28;20090;-82
2024/03/12 08:59:53;;;;;;;13.57;9.93;;;10.40;99.90;;;;;;5089148;28;20603;-82
2024/03/12 09:02:18;;;;;;;13.02;9.50;;;10.40;99.90;;;;;;5089535;28;20051;-83
2024/03/12 09:04:44;;;;;;;15.70;10.27;;;10.30;99.90;;;;;;5089373;28;20024;-83
2024/03/12 09:07:10;;;;;;;15.95;10.20;;;10.40;99.90;;;;;;5072630;28;20020;-82
2024/03/12 09:09:37;;;;;;;14.98;10.43;;;10.30;99.90;;;;;;5070118;28;20021;-83
2024/03/12 09:12:03;;;;;;;13.70;8.57;;;10.30;99.90;;;;;;5066589;28;20024;-84
2024/03/12 09:14:30;;;;;;;15.38;10.73;;;10.40;99.90;;;;;;5074006;28;20425;-81
2024/03/12 09:16:57;;;;;;;17.02;11.85;;;10.40;99.90;;;;;;5064570;28;20115;-89
2024/03/12 09:19:24;;;;;;;18.67;11.18;;;10.40;99.90;;;;;;5058484;28;20032;-88
2024/03/12 09:21:50;;;;;;;17.75;11.85;;;10.40;99.90;;;;;;5069277;28;20473;-81
2024/03/12 09:24:18;;;;;;;15.75;11.38;;;10.50;99.90;;;;;;5057422;28;20042;-81
2024/03/12 09:26:44;;;;;;;23.15;12.18;;;10.60;99.90;;;;;;5070699;28;20473;-82
2024/03/12 09:29:12;;;;;;;18.27;12.90;;;10.60;99.90;;;;;;5066893;28;20117;-82
2024/03/12 09:31:41;;;;;;;20.17;12.60;;;10.60;99.90;;;;;;5050912;28;20052;-83
2024/03/12 09:34:08;;;;;;;30.00;16.70;;;10.50;99.90;;;;;;5067120;28;20028;-86
2024/03/12 09:36:33;;;;;;;19.02;13.30;;;10.50;99.90;;;;;;5059392;28;20032;-87
2024/03/12 09:38:59;;;;;;;17.95;12.60;;;10.50;99.90;;;;;;5063496;28;20047;-86
2024/03/12 09:41:26;;;;;;;18.77;12.85;;;10.50;99.90;;;;;;5058789;28;20496;-88
2024/03/12 09:43:53;;;;;;;20.63;13.32;;;10.50;99.90;;;;;;5057472;28;20025;-90
2024/03/12 09:46:21;;;;;;;20.63;12.48;;;10.60;99.90;;;;;;5062724;28;20327;-85
2024/03/12 09:48:49;;;;;;;20.83;13.75;;;10.50;99.90;;;;;;5066213;28;20098;-82
2024/03/12 09:51:16;;;;;;;21.52;12.90;;;10.50;99.90;;;;;;5060930;28;20028;-81
2024/03/12 09:53:42;;;;;;;21.48;13.35;;;10.50;99.90;;;;;;5061851;28;20025;-80
2024/03/12 09:56:10;;;;;;;20.83;13.20;;;10.60;99.90;;;;;;5069595;28;20017;-79
2024/03/12 09:58:36;;;;;;;23.50;14.32;;;10.70;99.90;;;;;;5056943;28;20035;-80
2024/03/12 10:01:03;;;;;;;24.77;15.98;;;10.70;99.90;;;;;;5071659;28;20406;-82
2024/03/12 10:03:31;;;;;;;20.23;12.43;;;10.70;99.90;;;;;;5072643;28;20339;-81
2024/03/12 10:05:57;;;;;;;20.42;13.73;;;10.80;99.90;;;;;;5071488;28;20111;-79
2024/03/12 10:08:29;;;;;;;27.02;15.30;;;10.90;99.90;;;;;;5072839;28;20551;-81
2024/03/12 10:10:56;;;;;;;23.88;14.65;;;10.90;99.90;;;;;;5066580;28;20636;-86
2024/03/12 10:13:23;;;;;;;22.70;14.85;;;10.90;99.90;;;;;;5062660;28;20163;-84
2024/03/12 10:16:01;;;;;;;22.08;14.63;;;10.90;99.90;;;;;;5074222;28;20021;-83
2024/03/12 10:18:34;;;;;;;25.55;14.43;;;10.90;99.90;;;;;;5053166;28;20029;-79
2024/03/12 10:21:01;;;;;;;24.00;14.70;;;11.00;99.90;;;;;;5070703;28;20036;-76
2024/03/12 10:23:29;;;;;;;24.67;14.98;;;11.00;99.90;;;;;;5070066;28;20052;-83
2024/03/12 10:26:10;;;;;;;24.40;14.70;;;11.10;99.90;;;;;;5073723;28;20099;-78
2024/03/12 10:28:39;;;;;;;21.65;14.38;;;11.20;99.90;;;;;;5068389;28;20032;-85
2024/03/12 10:31:09;;;;;;;30.77;15.30;;;11.30;99.90;;;;;;5049945;28;20527;-84
2024/03/12 10:33:36;;;;;;;20.38;13.75;;;11.40;99.90;;;;;;5065456;28;20025;-86
2024/03/12 10:36:10;;;;;;;22.85;15.43;;;11.40;99.90;;;;;;5071528;28;20432;-83
2024/03/12 10:38:36;;;;;;;22.10;14.88;;;11.50;99.90;;;;;;5070911;28;20029;-80
2024/03/12 10:41:21;;;;;;;21.13;14.27;;;11.50;99.90;;;;;;5072016;28;20459;-81
2024/03/12 10:43:49;;;;;;;18.20;13.30;;;11.40;99.90;;;;;;5064462;28;20032;-83
2024/03/12 10:46:21;;;;;;;25.50;15.45;;;11.40;99.90;;;;;;5055129;28;20502;-80
2024/03/12 10:48:47;;;;;;;23.23;14.45;;;11.30;99.90;;;;;;5071250;28;20017;-86
2024/03/12 10:51:19;;;;;;;21.45;13.10;;;11.30;99.90;;;;;;5075259;28;20071;-89
2024/03/12 10:53:49;;;;;;;23.25;14.88;;;11.30;99.90;;;;;;5044094;28;20100;-82
2024/03/12 10:56:16;;;;;;;24.67;14.85;;;11.40;99.90;;;;;;5072311;28;20017;-79
2024/03/12 10:58:48;;;;;;;25.27;14.20;;;11.40;99.90;;;;;;5072384;28;20025;-84
2024/03/12 11:01:20;;;;;;;21.42;14.50;;;11.30;99.90;;;;;;5072070;28;20432;-78
2024/03/12 11:03:50;;;;;;;25.30;15.40;;;11.50;99.90;;;;;;5051143;28;20021;-85
2024/03/12 11:06:19;;;;;;;22.60;14.50;;;11.50;99.90;;;;;;5063010;28;20119;-80
2024/03/12 11:08:46;;;;;;;23.88;14.68;;;11.50;99.90;;;;;;5073935;28;20024;-79
2024/03/12 11:11:13;;;;;;;24.60;15.65;;;11.70;99.90;;;;;;5090948;28;20128;-78
2024/03/12 11:13:40;;;;;;;19.75;13.30;;;12.00;99.90;;;;;;5089034;28;20028;-84
2024/03/12 11:16:16;;;;;;;20.50;14.00;;;12.50;99.90;;;;;;5094545;28;20347;-83
2024/03/12 11:18:43;;;;;;;22.88;14.98;;;12.70;99.90;;;;;;5091099;28;20084;-84
2024/03/12 11:21:13;;;;;;;22.30;15.60;;;12.60;99.90;;;;;;5075037;28;20158;-84
2024/03/12 11:23:40;;;;;;;24.90;15.25;;;12.60;99.90;;;;;;5067490;28;20366;-85
2024/03/12 11:26:08;;;;;;;26.75;17.05;;;12.40;99.90;;;;;;5057558;28;20123;-87
2024/03/12 11:28:48;;;;;;;20.15;14.73;;;12.40;99.90;;;;;;5070510;28;20174;-90
2024/03/12 11:31:15;;;;;;;20.52;14.18;;;12.60;99.90;;;;;;5054239;28;20530;-90
2024/03/12 11:33:42;;;;;;;22.10;14.80;;;12.70;99.90;;;;;;5054734;28;20032;-92
2024/03/12 11:36:28;;;;;;;25.52;16.35;;;12.70;99.90;;;;;;5072326;28;20021;-91
2024/03/12 11:39:20;;;;;;;22.38;15.40;;;12.70;99.90;;;;;;5070718;28;20018;-86
2024/03/12 11:42:05;;;;;;;21.67;15.20;;;12.80;99.90;;;;;;5048952;28;20032;-88
2024/03/12 11:44:45;;;;;;;23.52;17.23;;;12.80;99.90;;;;;;5058246;28;20024;-89
2024/03/12 11:47:31;;;;;;;28.23;17.53;;;12.70;99.90;;;;;;5071603;28;20021;-89
2024/03/12 11:49:58;;;;;;;28.95;18.63;;;12.50;99.90;;;;;;5063955;28;20048;-88
2024/03/12 11:52:28;;;;;;;31.90;19.23;;;12.40;99.90;;;;;;5055514;28;20021;-89
2024/03/12 11:55:22;;;;;;;28.30;18.25;;;12.30;99.90;;;;;;5067287;28;20497;-88
2024/03/12 11:57:49;;;;;;;28.35;17.80;;;12.00;99.90;;;;;;5079991;28;20055;-88
2024/03/12 12:00:29;;;;;;;29.90;18.42;;;11.80;99.90;;;;;;5066727;28;20115;-87
2024/03/12 12:02:58;;;;;;;34.00;19.20;;;11.70;99.90;;;;;;5053860;28;20494;-88
2024/03/12 12:05:31;;;;;;;28.17;17.05;;;11.60;99.90;;;;;;5070386;28;20036;-88
2024/03/12 12:08:08;;;;;;;29.02;16.95;;;11.60;99.90;;;;;;5074433;28;20028;-88
2024/03/12 12:10:38;;;;;;;26.58;17.10;;;11.70;99.90;;;;;;5042692;28;20148;-87
2024/03/12 12:36:58;;;;;;;27.25;17.33;;;11.60;99.90;;;;;;5051492;28;20534;-88
2024/03/12 12:40:07;;;;;;;32.63;20.08;;;11.50;99.90;;;;;;5058112;28;20127;-89
2024/03/12 12:43:05;;;;;;;36.50;20.83;;;11.40;99.90;;;;;;5054575;28;20087;-89
2024/03/12 12:45:32;;;;;;;33.65;20.25;;;11.20;99.90;;;;;;5066326;28;20054;-89
2024/03/12 12:48:03;;;;;;;30.48;19.05;;;11.10;99.90;;;;;;5057127;28;20062;-89
2024/03/12 12:50:49;;;;;;;33.60;21.02;;;11.10;99.90;;;;;;5073047;28;20093;-88
2024/03/12 12:57:44;;;;;;;32.92;19.92;;;10.90;99.90;;;;;;5082147;28;20107;-82
2024/03/12 13:07:28;;;;;;;34.72;20.65;;;11.00;99.90;;;;;;5014837;28;20087;-88
2024/03/12 13:10:14;;;;;;;34.03;19.10;;;11.10;99.90;;;;;;5010436;28;20065;-88
2024/03/12 13:17:15;;;;;;;33.50;19.58;;;11.10;99.90;;;;;;5093758;28;20031;-81
2024/03/12 13:20:14;;;;;;;40.00;19.65;;;11.20;99.90;;;;;;5047833;28;20025;-81
2024/03/12 13:22:39;;;;;;;37.03;19.38;;;11.20;99.90;;;;;;5055039;28;20033;-81
2024/03/12 13:25:05;;;;;;;38.72;20.50;;;11.20;99.90;;;;;;5070993;28;20028;-81
2024/03/12 13:27:31;;;;;;;38.13;21.80;;;11.20;99.90;;;;;;5071263;28;20033;-80
2024/03/12 13:29:56;;;;;;;37.55;21.70;;;11.20;99.90;;;;;;5051399;28;20104;-81
2024/03/12 13:32:22;;;;;;;33.72;19.27;;;11.30;99.90;;;;;;5051316;28;20032;-81
2024/03/12 13:34:48;;;;;;;37.88;22.00;;;11.30;99.90;;;;;;5051447;28;20029;-81
2024/03/12 13:37:13;;;;;;;34.17;19.95;;;11.20;99.90;;;;;;5052676;28;20509;-81